METAR Reports for West Virginia

 

KMRB - Martinsburg, West Virginia, USA
Distance from station: NW 50mi, 81km
Updated: Sat, 18-Nov-2017 5:53pm EST
Mist, Few clouds
Mist, Few clouds
 Wind from calm
Wind: Calm
Temperature: 39°F , 4°C
Dew Point: 37°F , 3°C
Humidity: 93%
Barometer: 29.50 inHg , 999 hPa
Summary: Mist
Clouds: Few Clouds
Visibility: 5 miles , 8 km
Cloud details: Few Clouds 11000 ft
2017/11/18 22:53 KMRB 182253Z AUTO 00000KT 5SM BR FEW110 04/03 A2950 RMK AO2 SLP994 T00440033 $
KW99 - Petersburg, West Virginia, USA
Distance from station: W 94mi, 151km
Updated: Sat, 18-Nov-2017 6:15pm EST
Clear
Clear
 Wind from calm
Wind: Calm
Temperature: 39°F , 4°C
Dew Point: 36°F , 2°C
Humidity: 87%
Barometer: 29.48 inHg , 998.3 hPa
Clouds: Clear
Visibility: 10 miles , 16 km
2017/11/18 23:15 KW99 182315Z AUTO 00000KT 10SM CLR 04/02 A2948 RMK AO2 T00430015
KEKN - Elkins, West Virginia, USA
Distance from station: W 131mi, 211km
Updated: Sat, 18-Nov-2017 5:51pm EST
Mostly cloudy
Mostly cloudy
 Wind from S
Wind: S 9 mph , 15 km/h, Gust: 20 mph , 31 km/h
Temperature: 63°F , 17°C
Dew Point: 45°F , 7°C
Humidity: 52%
Barometer: 29.45 inHg , 997.3 hPa
Clouds: Mostly cloudy
Visibility: 10 miles , 16 km
Cloud details: Mostly cloudy 4700 ft
2017/11/18 22:51 KEKN 182251Z AUTO 19008G17KT 10SM BKN047 17/07 A2945 RMK AO2 SLP977 T01670067 TSNO
 
KMGW - Morgantown, West Virginia, USA
Distance from station: WNW 145mi, 234km
Updated: Sat, 18-Nov-2017 5:53pm EST
Mostly cloudy
Mostly cloudy
 Wind from S
Wind: S 10 mph , 17 km/h, Gust: 20 mph , 31 km/h
Temperature: 64°F , 18°C
Dew Point: 48°F , 9°C
Humidity: 56%
Barometer: 29.34 inHg , 993.6 hPa
Clouds: Mostly cloudy
Visibility: 10 miles , 16 km
Cloud details: Partly cloudy 4900 ft
Partly cloudy 7500 ft
Mostly cloudy 9500 ft
2017/11/18 22:53 KMGW 182253Z 18009G17KT 10SM SCT049 SCT075 BKN095 18/09 A2934 RMK AO2 RAB39E53 SLP932 P0000 T01780089
KCKB - Clarksburg, West Virginia, USA
Distance from station: WNW 154mi, 247km
Updated: Sat, 18-Nov-2017 5:53pm EST
Overcast
Overcast
 Wind from SSW
Wind: SSW 17 mph , 28 km/h, Gust: 28 mph , 44 km/h
Temperature: 66°F , 19°C
Dew Point: 48°F , 9°C
Humidity: 52%
Barometer: 29.37 inHg , 994.6 hPa
Clouds: Overcast
Visibility: 10 miles , 16 km
Cloud details: Mostly cloudy 4700 ft
Overcast 5500 ft
2017/11/18 22:53 KCKB 182253Z 20015G24KT 10SM BKN047 OVC055 19/09 A2937 RMK AO2 PK WND 22031/2223 SLP935 T01890089
KW22 - Buckhannon, West Virginia, USA
Distance from station: W 154mi, 247km
Updated: Sat, 18-Nov-2017 6:15pm EST
Overcast
Overcast
 Wind from SSW
Wind: SSW 16 mph , 26 km/h, Gust: 26 mph , 43 km/h
Temperature: 64°F , 18°C
Dew Point: 48°F , 9°C
Humidity: 56%
Barometer: 29.40 inHg , 995.6 hPa
Clouds: Overcast
Visibility: 10 miles , 16 km
Cloud details: Overcast 4300 ft
2017/11/18 23:15 KW22 182315Z AUTO 21014G23KT 10SM OVC043 18/09 A2940 RMK AO2
 
KHLG - Wheeling, West Virginia, USA
Distance from station: WNW 196mi, 315km
Updated: Sat, 18-Nov-2017 5:53pm EST
Overcast
Overcast
 Wind from SSW
Wind: SSW 16 mph , 26 km/h, Gust: 29 mph , 46 km/h
Temperature: 63°F , 17°C
Dew Point: 48°F , 9°C
Humidity: 59%
Barometer: 29.29 inHg , 991.9 hPa
Clouds: Overcast
Visibility: 10 miles , 16 km
Cloud details: Overcast 4200 ft
2017/11/18 22:53 KHLG 182253Z 21014G25KT 10SM OVC042 17/09 A2929 RMK AO2 PK WND 19026/2220 RAB19E29 SLP919 P0000 T01670094
KPKB - Parkersburg, West Virginia, USA
Distance from station: W 217mi, 350km
Updated: Sat, 18-Nov-2017 5:53pm EST
Rain, Overcast
Rain, Overcast
 Wind from SSW
Wind: SSW 13 mph , 20 km/h, Gust: 26 mph , 43 km/h
Temperature: 64°F , 18°C
Dew Point: 54°F , 12°C
Humidity: 68%
Barometer: 29.34 inHg , 993.6 hPa
Summary: Rain
Clouds: Overcast
Visibility: 7 miles , 11 km
Cloud details: Mostly cloudy 4400 ft
Overcast 5500 ft
2017/11/18 22:53 KPKB 182253Z 20011G23KT 7SM RA BKN044 OVC055 18/12 A2934 RMK AO2 PK WND 20040/2223 SLP932 P0001 T01830117
KCRW - Charleston, West Virginia, USA
Distance from station: WSW 227mi, 365km
Updated: Sat, 18-Nov-2017 5:54pm EST
Overcast
Overcast
 Wind from S
Wind: S 21 mph , 33 km/h, Gust: 29 mph , 46 km/h
Temperature: 66°F , 19°C
Dew Point: 50°F , 10°C
Humidity: 56%
Barometer: 29.42 inHg , 996.3 hPa
Clouds: Overcast
Visibility: 10 miles , 16 km
Cloud details: Mostly cloudy 4400 ft
Overcast 20000 ft
2017/11/18 22:54 KCRW 182254Z 18018G25KT 10SM BKN044 OVC200 19/10 A2942 RMK AO2 SLP955 T01890100
 
KLWB - Lewisburg, West Virginia, USA
Distance from station: WSW 175mi, 281km
Updated: Sat, 18-Nov-2017 6:15pm EST
Overcast
Overcast
 Wind from SSW
Wind: SSW 10 mph , 17 km/h, Gust: 17 mph , 28 km/h
Temperature: 59°F , 15°C
Dew Point: 45°F , 7°C
Humidity: 59%
Barometer: 29.56 inHg , 1001 hPa
Clouds: Overcast
Visibility: 10 miles , 16 km
Cloud details: Overcast 4600 ft
2017/11/18 23:15 KLWB 182315Z AUTO 21009G15KT 10SM OVC046 15/07 A2956 RMK AO2 T01500067
KBKW - Beckley, West Virginia, USA
Distance from station: WSW 213mi, 342km
Updated: Sat, 18-Nov-2017 5:51pm EST
Overcast
Overcast
 Wind from SW
Wind: SW 17 mph , 28 km/h, Gust: 36 mph , 57 km/h
Temperature: 61°F , 16°C
Dew Point: 46°F , 8°C
Humidity: 59%
Barometer: 29.54 inHg , 1000.3 hPa
Clouds: Overcast
Visibility: 10 miles , 16 km
Cloud details: Mostly cloudy 3500 ft
Overcast 4800 ft
2017/11/18 22:51 KBKW 182251Z AUTO 22015G31KT 10SM BKN035 OVC048 16/08 A2954 RMK AO2 PK WND 22036/2207 SLP988 T01560083 TSNO
KBLF - Bluefield, West Virginia, USA
Distance from station: SW 231mi, 372km
Updated: Sat, 18-Nov-2017 5:52pm EST
Overcast
Overcast
 Wind from SSW
Wind: SSW 12 mph , 19 km/h, Gust: 25 mph , 41 km/h
Temperature: 57°F , 14°C
Dew Point: 43°F , 6°C
Humidity: 59%
Barometer: 29.60 inHg , 1002.4 hPa
Clouds: Overcast
Visibility: 10 miles , 16 km
Cloud details: Overcast 3900 ft
2017/11/18 22:52 KBLF 182252Z AUTO 20010G22KT 10SM OVC039 14/06 A2960 RMK AO2 SLP004 T01440061
 
KI16 - Pineville, West Virginia, USA
Distance from station: WSW 240mi, 387km
Updated: Sat, 18-Nov-2017 6:15pm EST
Overcast
Overcast
 
Temperature: 63°F , 17°C
Dew Point: 50°F , 10°C
Humidity: 64%
Barometer: 29.59 inHg , 1002 hPa
Clouds: Overcast
Visibility: 10 miles , 16 km
Cloud details: Overcast 3400 ft
2017/11/18 23:15 KI16 182315Z AUTO 10SM OVC034 17/10 A2959 RMK AO2 T01700100
KHTS - Huntington, West Virginia, USA
Distance from station: W 279mi, 449km
Updated: Sat, 18-Nov-2017 5:51pm EST
Overcast
Overcast
 Wind from SW
Wind: SW 20 mph , 31 km/h, Gust: 33 mph , 54 km/h
Temperature: 66°F , 19°C
Dew Point: 52°F , 11°C
Humidity: 60%
Barometer: 29.37 inHg , 994.6 hPa
Clouds: Overcast
Visibility: 10 miles , 16 km
Cloud details: Overcast 3700 ft
2017/11/18 22:51 KHTS 182251Z 22017G29KT 10SM OVC037 19/11 A2937 RMK AO2 PK WND 22029/2242 SLP942 T01890106